Time;durP1;ratioP1;P1;durP2;ratioP2;P2;SDS_P1;SDS_P2;PMS_P1;PMS_P2;Temp;Humidity;BMP_temperature;BMP_pressure;BME280_temperature;BME280_humidity;BME280_pressure;Samples;Min_cycle;Max_cycle;Signal;HPM_P1;HPM_P2
2021/06/26 00:02:26;;;;;;;5.37;4.47;;;;;;;27.02;51.81;68969.06;5009870;28;20233;-74
2021/06/26 00:04:53;;;;;;;7.07;5.00;;;;;;;27.04;53.36;68971.19;5006698;28;21063;-76
2021/06/26 00:07:20;;;;;;;7.13;4.70;;;;;;;27.08;51.53;68975.22;5007022;28;20209;-75
2021/06/26 00:09:48;;;;;;;6.33;5.10;;;;;;;27.09;53.84;68976.47;5008999;28;20297;-75
2021/06/26 00:12:15;;;;;;;6.37;4.90;;;;;;;27.09;53.65;68976.75;5009625;28;20223;-76
2021/06/26 00:14:42;;;;;;;6.43;5.10;;;;;;;27.11;52.20;68977.69;5008105;28;20233;-75
2021/06/26 00:17:10;;;;;;;7.53;5.20;;;;;;;27.12;52.20;68979.75;5009842;28;20311;-75
2021/06/26 00:19:38;;;;;;;9.10;5.53;;;;;;;27.14;52.31;68981.59;5007278;28;20308;-75
2021/06/26 00:22:06;;;;;;;9.43;5.60;;;;;;;27.14;50.75;68981.88;5009043;28;20249;-76
2021/06/26 00:24:33;;;;;;;6.07;4.90;;;;;;;27.14;51.16;68982.19;5009678;28;20214;-75
2021/06/26 00:27:01;;;;;;;8.67;4.80;;;;;;;27.13;52.81;68980.53;5013965;28;20233;-75
2021/06/26 00:29:28;;;;;;;7.17;4.77;;;;;;;27.14;49.98;68981.38;5013928;28;20560;-76
2021/06/26 00:31:55;;;;;;;6.80;4.97;;;;;;;27.15;50.01;68982.22;5013747;28;20574;-76
2021/06/26 00:34:22;;;;;;;6.00;4.53;;;;;;;27.16;51.92;68983.41;5013812;28;20666;-74
2021/06/26 00:36:51;;;;;;;9.80;5.30;;;;;;;27.16;52.38;68983.66;5014174;28;20214;-75
2021/06/26 00:39:18;;;;;;;8.40;4.73;;;;;;;27.17;49.28;68985.28;5014237;28;20206;-76
2021/06/26 00:41:45;;;;;;;6.73;4.57;;;;;;;27.15;54.86;68982.53;5013815;28;20765;-75
2021/06/26 00:44:13;;;;;;;7.17;4.60;;;;;;;27.13;55.09;68980.84;5011920;28;20677;-74
2021/06/26 00:46:40;;;;;;;7.87;5.00;;;;;;;27.13;53.68;68981.19;5014334;28;20236;-75
2021/06/26 00:49:08;;;;;;;10.27;5.10;;;;;;;27.13;53.01;68981.28;5014365;28;20216;-75
2021/06/26 00:51:35;;;;;;;7.93;4.90;;;;;;;27.13;52.97;68980.16;5013214;28;20258;-75
2021/06/26 00:54:04;;;;;;;6.60;5.00;;;;;;;27.13;52.36;68981.03;5014095;28;20213;-76
2021/06/26 00:56:32;;;;;;;6.93;5.10;;;;;;;27.12;54.82;68978.97;5014448;28;20206;-74
2021/06/26 00:58:59;;;;;;;8.87;5.20;;;;;;;27.09;54.93;68976.25;5012454;28;20225;-75
2021/06/26 01:01:27;;;;;;;11.57;5.00;;;;;;;27.09;55.37;68975.50;5013435;28;20730;-76
2021/06/26 01:03:55;;;;;;;7.67;5.30;;;;;;;27.08;53.82;68975.03;5011271;28;20210;-76
2021/06/26 01:06:22;;;;;;;7.17;4.90;;;;;;;27.10;53.40;68976.31;5012704;28;20234;-75
2021/06/26 01:08:49;;;;;;;5.80;5.20;;;;;;;27.11;53.02;68977.47;5009955;28;20697;-75
2021/06/26 01:11:18;;;;;;;7.17;4.80;;;;;;;27.10;55.17;68976.13;5004292;28;20599;-76
2021/06/26 01:13:45;;;;;;;10.40;5.20;;;;;;;27.10;53.82;68976.22;5012215;28;20220;-76
2021/06/26 01:16:13;;;;;;;7.57;5.30;;;;;;;27.09;54.00;68975.34;5013913;28;20199;-76
2021/06/26 01:18:40;;;;;;;5.53;4.93;;;;;;;27.08;54.07;68973.91;5012023;28;20234;-75
2021/06/26 01:21:07;;;;;;;8.40;5.03;;;;;;;27.06;53.33;68972.34;5011686;28;20237;-76
2021/06/26 01:23:45;;;;;;;6.70;5.20;;;;;;;27.04;52.59;68970.50;5011691;28;20205;-75
2021/06/26 01:26:12;;;;;;;8.30;5.63;;;;;;;27.04;53.72;68969.66;5005444;28;20242;-74
2021/06/26 01:28:40;;;;;;;7.60;5.67;;;;;;;27.02;54.83;68967.34;5011391;28;20210;-74
2021/06/26 01:31:07;;;;;;;7.27;5.60;;;;;;;26.98;56.81;68963.31;5008138;28;20225;-73
2021/06/26 01:33:35;;;;;;;8.20;5.40;;;;;;;26.99;53.68;68963.91;5010843;28;20553;-74
2021/06/26 01:36:02;;;;;;;4.93;4.43;;;;;;;26.98;53.79;68963.16;5013558;28;20556;-73
2021/06/26 01:38:30;;;;;;;7.87;5.50;;;;;;;26.92;56.39;68957.06;5012322;28;20579;-73
2021/06/26 01:40:58;;;;;;;7.27;5.40;;;;;;;26.91;52.52;68955.50;5012723;28;20318;-74
2021/06/26 01:43:25;;;;;;;8.63;5.57;;;;;;;26.89;52.05;68953.59;5008709;28;20201;-73
2021/06/26 01:45:53;;;;;;;6.87;5.20;;;;;;;26.85;53.69;68948.44;5007307;28;20230;-73
2021/06/26 01:48:21;;;;;;;8.67;4.83;;;;;;;26.84;54.23;68947.09;5013226;28;20212;-75
2021/06/26 01:50:49;;;;;;;9.47;6.23;;;;;;;26.82;53.99;68945.41;5011991;28;20224;-74
2021/06/26 01:53:17;;;;;;;8.87;5.63;;;;;;;26.79;55.40;68942.09;5011893;28;20686;-75
2021/06/26 01:55:45;;;;;;;8.40;5.53;;;;;;;26.74;58.52;68936.25;5013299;28;20200;-73
2021/06/26 01:58:13;;;;;;;8.03;5.20;;;;;;;26.73;56.50;68935.25;5011914;28;20236;-73
2021/06/26 02:00:40;;;;;;;9.90;5.40;;;;;;;26.74;55.08;68935.84;5013482;28;20240;-75
2021/06/26 02:03:08;;;;;;;12.23;6.07;;;;;;;26.70;58.57;68931.19;5013413;28;20220;-74
2021/06/26 02:05:35;;;;;;;6.73;5.60;;;;;;;26.68;58.67;68929.00;5011428;28;20234;-74
2021/06/26 02:08:03;;;;;;;6.83;5.23;;;;;;;26.69;56.74;68929.41;5013583;28;20292;-74
2021/06/26 02:10:30;;;;;;;8.33;5.73;;;;;;;26.70;55.86;68930.72;5013301;28;20206;-74
2021/06/26 02:12:57;;;;;;;8.90;5.80;;;;;;;26.70;56.25;68931.03;5012814;28;20314;-73
2021/06/26 02:15:26;;;;;;;8.73;6.23;;;;;;;26.72;55.91;68933.72;5011802;28;20216;-77
2021/06/26 02:17:53;;;;;;;6.67;5.60;;;;;;;26.74;55.33;68936.03;5013285;28;20217;-75
2021/06/26 02:20:21;;;;;;;9.30;5.93;;;;;;;26.76;55.32;68936.78;5013134;28;20217;-75
2021/06/26 02:22:48;;;;;;;7.50;6.10;;;;;;;26.77;55.16;68938.25;5011377;28;20212;-75
2021/06/26 02:25:18;;;;;;;7.23;5.60;;;;;;;26.77;55.96;68939.00;5012226;28;20200;-75
2021/06/26 02:27:46;;;;;;;8.43;5.90;;;;;;;26.78;55.13;68940.03;5012328;28;20212;-76
2021/06/26 02:30:14;;;;;;;6.60;5.27;;;;;;;26.80;54.86;68942.41;5013158;28;20206;-76
2021/06/26 02:32:43;;;;;;;8.77;5.83;;;;;;;26.80;54.73;68943.25;5011369;28;20225;-75
2021/06/26 02:35:11;;;;;;;7.97;6.47;;;;;;;26.82;54.21;68945.56;5012265;28;20202;-76
2021/06/26 02:37:40;;;;;;;6.70;5.80;;;;;;;26.84;53.93;68947.09;5011293;28;20205;-75
2021/06/26 02:40:08;;;;;;;7.70;6.07;;;;;;;26.86;54.27;68948.78;5007132;28;20273;-76
2021/06/26 02:42:36;;;;;;;11.20;6.27;;;;;;;26.85;56.47;68947.81;5012899;28;20736;-73
2021/06/26 02:45:03;;;;;;;8.83;5.80;;;;;;;26.84;55.97;68947.41;5010698;28;20205;-73
2021/06/26 02:47:30;;;;;;;7.17;6.20;;;;;;;26.85;55.12;68948.38;5011181;28;20238;-75
2021/06/26 02:49:59;;;;;;;9.77;6.27;;;;;;;26.84;57.37;68947.41;5012335;28;20212;-76
2021/06/26 02:52:26;;;;;;;10.67;5.93;;;;;;;26.83;57.33;68946.53;5011976;28;20241;-73
2021/06/26 02:54:54;;;;;;;8.13;6.20;;;;;;;26.83;57.04;68945.31;5011777;28;20209;-75
2021/06/26 02:57:21;;;;;;;8.07;5.73;;;;;;;26.83;56.31;68946.19;5012246;28;20202;-73
2021/06/26 02:59:49;;;;;;;8.17;6.07;;;;;;;26.85;55.22;68947.75;5012130;28;20233;-75
2021/06/26 03:02:16;;;;;;;6.70;5.30;;;;;;;26.87;55.52;68949.75;5011483;28;20817;-77
2021/06/26 03:04:44;;;;;;;8.23;5.80;;;;;;;26.87;56.83;68950.34;5011794;28;20218;-76
2021/06/26 03:07:12;;;;;;;9.10;5.50;;;;;;;26.89;55.25;68953.25;5011003;28;20242;-76
2021/06/26 03:09:40;;;;;;;8.60;6.27;;;;;;;26.89;58.09;68952.50;5012183;28;20233;-75
2021/06/26 03:12:08;;;;;;;6.87;5.53;;;;;;;26.88;58.41;68951.53;5011950;28;20225;-75
2021/06/26 03:14:35;;;;;;;8.67;5.97;;;;;;;26.87;57.39;68951.13;5002057;28;20210;-75
2021/06/26 03:17:03;;;;;;;10.13;6.47;;;;;;;26.86;59.04;68949.59;5011472;28;20208;-76
2021/06/26 03:19:30;;;;;;;8.07;6.23;;;;;;;26.85;57.96;68949.03;5011542;28;20209;-75
2021/06/26 03:21:57;;;;;;;10.43;6.70;;;;;;;26.85;56.34;68949.16;5010549;28;20242;-76
2021/06/26 03:24:27;;;;;;;9.37;6.67;;;;;;;26.82;57.18;68945.72;5011638;28;20239;-76
2021/06/26 03:26:55;;;;;;;9.53;6.27;;;;;;;26.76;59.80;68939.41;5005146;28;20225;-73
2021/06/26 03:29:23;;;;;;;8.40;6.23;;;;;;;26.67;61.85;68930.13;5011704;28;20210;-73
2021/06/26 03:31:50;;;;;;;10.40;7.00;;;;;;;26.64;61.91;68925.97;5011932;28;20259;-72
2021/06/26 03:34:17;;;;;;;10.97;7.27;;;;;;;26.61;59.58;68923.28;5010530;28;20227;-72
2021/06/26 03:36:45;;;;;;;8.10;6.67;;;;;;;26.57;60.76;68918.69;5011562;28;20231;-74
2021/06/26 03:39:12;;;;;;;10.63;6.73;;;;;;;26.53;61.33;68914.47;5011532;28;20665;-73
2021/06/26 03:41:41;;;;;;;9.07;6.23;;;;;;;26.47;61.92;68907.88;5011949;28;20233;-72
2021/06/26 03:44:08;;;;;;;9.47;6.40;;;;;;;26.40;63.21;68900.25;5010703;28;20204;-73
2021/06/26 03:46:36;;;;;;;8.40;6.53;;;;;;;26.34;62.59;68893.53;5009242;28;20237;-74
2021/06/26 03:49:04;;;;;;;9.40;6.93;;;;;;;26.28;63.47;68886.13;5010515;28;20648;-72
2021/06/26 03:51:31;;;;;;;9.83;7.37;;;;;;;26.21;64.39;68878.25;5010719;28;20228;-73
2021/06/26 03:53:59;;;;;;;11.43;7.37;;;;;;;26.14;64.80;68871.06;5010198;28;20208;-73
2021/06/26 03:56:26;;;;;;;10.40;8.10;;;;;;;26.07;66.46;68862.16;5011940;28;20210;-74
2021/06/26 03:58:54;;;;;;;10.70;7.73;;;;;;;26.01;65.97;68855.56;5010446;28;20201;-73
2021/06/26 04:01:22;;;;;;;10.83;7.93;;;;;;;25.96;65.68;68849.38;5005491;28;20242;-74
2021/06/26 04:03:49;;;;;;;9.47;7.80;;;;;;;25.89;67.99;68842.03;5009593;28;20211;-73
2021/06/26 04:06:16;;;;;;;12.60;8.40;;;;;;;25.82;68.20;68834.47;5011107;28;20243;-72
2021/06/26 04:08:45;;;;;;;13.60;8.27;;;;;;;25.73;70.34;68824.28;5010389;28;20737;-72
2021/06/26 04:11:12;;;;;;;11.50;7.93;;;;;;;25.70;66.38;68820.63;5010644;28;20623;-73
2021/06/26 04:13:39;;;;;;;12.00;7.60;;;;;;;25.65;66.61;68815.31;5008948;28;20641;-74
2021/06/26 04:16:08;;;;;;;10.93;8.77;;;;;;;25.65;64.17;68814.94;5011374;28;20204;-73
2021/06/26 04:18:35;;;;;;;10.53;8.27;;;;;;;25.63;66.12;68813.81;5011377;28;20212;-73
2021/06/26 04:21:02;;;;;;;12.03;7.93;;;;;;;25.62;64.03;68812.50;5010147;28;20238;-73
2021/06/26 04:23:30;;;;;;;13.03;8.23;;;;;;;25.63;62.84;68812.94;5010182;28;20208;-72
2021/06/26 04:25:57;;;;;;;11.00;7.73;;;;;;;25.64;62.48;68814.97;5011835;28;20695;-73
2021/06/26 04:28:24;;;;;;;11.57;7.17;;;;;;;25.68;62.72;68818.69;5011265;28;20669;-74
2021/06/26 04:30:51;;;;;;;10.67;7.10;;;;;;;25.67;64.37;68818.13;5010982;28;20255;-74
2021/06/26 04:33:20;;;;;;;8.93;6.87;;;;;;;25.66;63.42;68816.81;5011021;28;20211;-72
2021/06/26 04:35:47;;;;;;;11.10;7.33;;;;;;;25.66;64.04;68817.09;5009800;28;20204;-73
2021/06/26 04:38:21;;;;;;;10.53;7.90;;;;;;;25.66;66.50;68816.25;5010995;28;20204;-74
2021/06/26 04:40:48;;;;;;;11.53;8.40;;;;;;;25.66;66.64;68817.25;5011356;28;20276;-73
2021/06/26 04:43:15;;;;;;;11.47;7.93;;;;;;;25.72;62.96;68823.28;5010880;28;20212;-75
2021/06/26 04:45:45;;;;;;;13.50;8.97;;;;;;;25.77;63.13;68829.28;5010175;28;20207;-75
2021/06/26 04:48:12;;;;;;;13.20;10.03;;;;;;;25.75;66.64;68827.25;5011275;28;20226;-75
2021/06/26 04:50:41;;;;;;;14.43;8.63;;;;;;;25.72;71.28;68823.28;5010565;28;20667;-73
2021/06/26 04:53:08;;;;;;;12.87;9.73;;;;;;;25.71;68.61;68822.50;5011032;28;20229;-74
2021/06/26 04:55:35;;;;;;;14.00;9.03;;;;;;;25.69;69.21;68821.41;5009380;28;20214;-73
2021/06/26 04:58:03;;;;;;;12.43;9.07;;;;;;;25.68;68.08;68819.50;5011069;28;20205;-73
2021/06/26 05:00:30;;;;;;;14.20;9.83;;;;;;;25.69;66.87;68820.47;5010214;28;20210;-72
2021/06/26 05:02:57;;;;;;;13.13;9.77;;;;;;;25.78;60.39;68830.00;5010891;28;20202;-76
2021/06/26 05:05:25;;;;;;;16.23;8.77;;;;;;;25.87;60.03;68841.22;5009227;28;20316;-76
2021/06/26 05:07:53;;;;;;;13.13;8.50;;;;;;;25.95;62.62;68849.34;5010587;28;20245;-75
2021/06/26 05:10:21;;;;;;;13.33;9.40;;;;;;;25.91;70.07;68845.06;5010585;28;20206;-73
2021/06/26 05:12:48;;;;;;;14.37;10.23;;;;;;;25.93;66.98;68846.66;5013778;28;20207;-72
2021/06/26 05:15:16;;;;;;;12.83;9.37;;;;;;;25.93;67.65;68846.72;5012746;28;20226;-72
2021/06/26 05:17:44;;;;;;;15.90;11.03;;;;;;;25.97;64.60;68851.13;5014557;28;20210;-75
2021/06/26 05:20:14;;;;;;;14.07;10.97;;;;;;;26.00;64.94;68854.97;5014546;28;20206;-75
2021/06/26 05:22:41;;;;;;;14.83;10.23;;;;;;;26.04;65.80;68859.13;5014008;28;20234;-75
2021/06/26 05:25:12;;;;;;;12.63;10.00;;;;;;;26.03;67.30;68857.69;5012891;28;20207;-73
2021/06/26 05:27:39;;;;;;;15.33;9.80;;;;;;;26.06;66.28;68860.97;5014335;28;20237;-75
2021/06/26 05:30:07;;;;;;;14.63;10.70;;;;;;;26.03;68.62;68857.41;5013992;28;20218;-73
2021/06/26 05:32:35;;;;;;;13.87;10.23;;;;;;;26.08;64.03;68862.97;5013947;28;20241;-71
2021/06/26 05:35:02;;;;;;;14.33;10.17;;;;;;;26.14;62.41;68870.06;5012325;28;20582;-74
2021/06/26 05:37:29;;;;;;;16.13;10.67;;;;;;;26.19;63.54;68876.19;5014207;28;20213;-73
2021/06/26 05:39:56;;;;;;;14.10;10.17;;;;;;;26.24;62.01;68881.94;5013521;28;20235;-74
2021/06/26 05:42:25;;;;;;;15.63;10.77;;;;;;;26.36;58.35;68894.97;5014417;28;20230;-77
2021/06/26 05:44:53;;;;;;;16.00;10.93;;;;;;;26.43;60.43;68902.78;5012715;28;20214;-72
2021/06/26 05:47:20;;;;;;;15.33;11.53;;;;;;;26.37;70.53;68895.63;5012300;28;20613;-76
2021/06/26 05:49:47;;;;;;;16.90;11.67;;;;;;;26.41;63.56;68900.78;5013695;28;20211;-77
2021/06/26 05:52:14;;;;;;;14.73;11.03;;;;;;;26.38;69.73;68897.81;5014788;28;20254;-72
2021/06/26 05:54:42;;;;;;;16.47;11.20;;;;;;;26.42;66.40;68901.19;5011507;28;20660;-72
2021/06/26 05:57:09;;;;;;;14.87;11.87;;;;;;;26.42;68.15;68901.88;5012899;28;20680;-76
2021/06/26 05:59:38;;;;;;;14.93;10.07;;;;;;;26.51;62.67;68912.22;5012902;28;20234;-75
2021/06/26 06:02:10;;;;;;;18.93;11.77;;;;;;;26.54;66.93;68915.25;5009399;28;20231;-77
2021/06/26 06:04:37;;;;;;;16.27;11.13;;;;;;;26.56;65.41;68917.00;5012306;28;20203;-77
2021/06/26 06:07:04;;;;;;;16.70;11.97;;;;;;;26.64;61.11;68926.50;5015226;28;20215;-74
2021/06/26 06:09:32;;;;;;;16.93;12.67;;;;;;;26.69;64.44;68931.97;5013130;28;20229;-77
2021/06/26 06:11:59;;;;;;;14.97;11.40;;;;;;;26.78;59.24;68943.16;5014317;28;20250;-76
2021/06/26 06:14:26;;;;;;;16.93;12.73;;;;;;;26.72;69.35;68935.97;5013744;28;20221;-77
2021/06/26 06:16:55;;;;;;;16.30;12.10;;;;;;;26.69;69.74;68932.56;5014072;28;20556;-78
2021/06/26 06:19:22;;;;;;;17.17;12.37;;;;;;;26.68;68.04;68931.56;5014274;28;20215;-76
2021/06/26 06:21:50;;;;;;;18.73;12.33;;;;;;;26.70;65.11;68933.56;5013980;28;20251;-78
2021/06/26 06:24:18;;;;;;;16.77;12.40;;;;;;;26.66;68.63;68929.03;5009896;28;20218;-75
2021/06/26 06:26:45;;;;;;;18.30;12.57;;;;;;;26.61;70.70;68923.94;5013307;28;20582;-78
2021/06/26 06:29:13;;;;;;;17.73;11.80;;;;;;;26.70;61.56;68934.41;5012523;28;20319;-79
2021/06/26 06:31:40;;;;;;;16.53;11.77;;;;;;;26.68;67.07;68931.59;5012527;28;20238;-75
2021/06/26 06:34:08;;;;;;;18.53;12.23;;;;;;;26.67;66.15;68931.47;5009510;28;20211;-77
2021/06/26 06:36:36;;;;;;;14.47;11.70;;;;;;;26.73;61.39;68937.63;5012701;28;20244;-77
2021/06/26 06:39:04;;;;;;;15.07;11.77;;;;;;;26.74;64.56;68938.66;5012457;28;20214;-77
2021/06/26 06:41:31;;;;;;;15.60;11.67;;;;;;;26.78;62.56;68942.75;5012893;28;20224;-79
2021/06/26 06:43:58;;;;;;;16.90;12.07;;;;;;;26.79;63.02;68943.72;5012271;28;20687;-74
2021/06/26 06:46:25;;;;;;;14.27;10.40;;;;;;;26.92;55.90;68959.09;5012917;28;20207;-74
2021/06/26 06:48:53;;;;;;;13.47;11.67;;;;;;;26.93;63.16;68960.41;5013381;28;20231;-75
2021/06/26 06:51:21;;;;;;;15.57;11.80;;;;;;;26.97;60.91;68964.84;5012827;28;20237;-76
2021/06/26 06:53:48;;;;;;;14.33;11.47;;;;;;;27.04;58.90;68972.38;5003365;28;20208;-74
2021/06/26 06:56:16;;;;;;;14.67;11.90;;;;;;;27.10;59.85;68978.59;5012000;28;20208;-77
2021/06/26 06:58:43;;;;;;;15.77;11.53;;;;;;;27.19;56.77;68989.06;5010120;28;20211;-77
2021/06/26 07:01:10;;;;;;;15.27;12.27;;;;;;;27.25;57.23;68996.25;5009219;28;20233;-75
2021/06/26 07:03:37;;;;;;;13.30;11.23;;;;;;;27.35;55.82;69007.19;5016751;28;20208;-80
2021/06/26 07:06:05;;;;;;;15.63;11.60;;;;;;;27.35;61.65;69008.22;5014630;28;20201;-76
2021/06/26 07:08:34;;;;;;;16.40;10.47;;;;;;;27.46;55.57;69020.22;5018724;28;20231;-78
2021/06/26 07:11:01;;;;;;;17.30;11.83;;;;;;;27.42;63.73;69015.47;5011671;28;20223;-78
2021/06/26 07:13:28;;;;;;;14.10;10.90;;;;;;;27.50;56.48;69024.03;5014405;28;20212;-81
2021/06/26 07:15:55;;;;;;;15.40;10.87;;;;;;;27.64;51.07;69039.78;5014928;28;20200;-76
2021/06/26 07:18:23;;;;;;;15.30;10.60;;;;;;;27.67;57.95;69042.97;5015222;28;20583;-84
2021/06/26 07:20:50;;;;;;;13.90;11.10;;;;;;;27.73;53.89;69050.50;5013355;28;20728;-69
2021/06/26 07:23:18;;;;;;;13.90;10.87;;;;;;;27.73;57.78;69051.25;5010469;28;20211;-71
2021/06/26 07:25:46;;;;;;;16.97;11.50;;;;;;;27.71;60.10;69048.97;5011204;28;20210;-71
2021/06/26 07:28:14;;;;;;;13.10;11.27;;;;;;;27.64;63.56;69041.22;5010811;28;20223;-71
2021/06/26 07:30:41;;;;;;;13.77;11.03;;;;;;;27.71;54.56;69048.94;5012144;28;20232;-70
2021/06/26 07:33:08;;;;;;;12.03;9.87;;;;;;;27.79;55.51;69056.94;5012593;28;20231;-71
2021/06/26 07:35:35;;;;;;;16.30;10.20;;;;;;;27.87;52.89;69066.91;5009886;28;20203;-69
2021/06/26 07:38:03;;;;;;;15.30;10.57;;;;;;;27.87;55.10;69066.84;5015350;28;20205;-67
2021/06/26 07:40:30;;;;;;;12.13;10.37;;;;;;;27.83;59.03;69061.69;5008993;28;20216;-69
2021/06/26 07:42:59;;;;;;;11.23;9.30;;;;;;;27.85;54.98;69064.09;5013290;28;20205;-69
2021/06/26 07:45:26;;;;;;;14.10;8.53;;;;;;;27.96;48.91;69076.09;5010473;28;20416;-69
2021/06/26 07:47:53;;;;;;;13.83;9.23;;;;;;;28.13;45.23;69095.63;5013752;28;20226;-69
2021/06/26 07:50:21;;;;;;;13.40;10.50;;;;;;;28.24;46.66;69108.25;5010510;28;20213;-70
2021/06/26 07:52:48;;;;;;;9.67;8.53;;;;;;;28.26;49.80;69109.91;5010769;28;20567;-69
2021/06/26 07:55:15;;;;;;;10.20;8.57;;;;;;;28.24;54.61;69107.81;5010955;28;20217;-72
2021/06/26 07:57:42;;;;;;;11.07;9.30;;;;;;;28.24;53.90;69108.16;5017917;28;20206;-71
2021/06/26 08:00:12;;;;;;;12.30;9.27;;;;;;;28.27;50.94;69111.34;5009034;28;20306;-71
2021/06/26 08:02:39;;;;;;;11.07;8.90;;;;;;;28.30;49.97;69114.91;5014456;28;20229;-70
2021/06/26 08:05:08;;;;;;;13.70;8.90;;;;;;;28.32;52.01;69117.47;5009239;28;20657;-71
2021/06/26 08:07:35;;;;;;;10.50;9.10;;;;;;;28.29;54.86;69113.47;5016480;28;20239;-76
2021/06/26 08:10:03;;;;;;;12.17;8.47;;;;;;;28.33;49.08;69118.03;5010660;28;20208;-70
2021/06/26 08:12:30;;;;;;;10.10;8.03;;;;;;;28.46;44.59;69132.22;5013489;28;20235;-69
2021/06/26 08:14:58;;;;;;;9.30;7.70;;;;;;;28.67;39.36;69156.72;5018428;28;20244;-69
2021/06/26 08:17:26;;;;;;;8.95;7.50;;;;;;;28.84;41.75;69175.09;5013018;28;20214;-69
2021/06/26 08:19:53;;;;;;;10.93;8.00;;;;;;;28.81;47.87;69172.66;5010618;28;20199;-71
2021/06/26 08:22:21;;;;;;;8.73;7.47;;;;;;;28.82;47.78;69173.66;5009412;28;20761;-73
2021/06/26 08:24:48;;;;;;;10.18;7.53;;;;;;;28.89;44.34;69182.28;5010911;28;20566;-69
2021/06/26 08:27:15;;;;;;;8.85;6.82;;;;;;;29.02;41.08;69197.22;5010413;28;20569;-74
2021/06/26 08:29:42;;;;;;;10.60;8.38;;;;;;;29.08;45.50;69203.66;5009559;28;20206;-73
2021/06/26 08:32:10;;;;;;;9.63;8.30;;;;;;;29.09;47.66;69204.56;5011685;28;20234;-77
2021/06/26 08:34:38;;;;;;;10.37;7.53;;;;;;;29.11;46.76;69207.75;5008466;28;20207;-72
2021/06/26 08:37:06;;;;;;;10.70;8.23;;;;;;;29.14;47.21;69210.28;5015602;28;20203;-73
2021/06/26 08:39:33;;;;;;;10.63;7.70;;;;;;;29.15;47.04;69210.91;5010713;28;20210;-70
2021/06/26 08:42:02;;;;;;;10.90;7.93;;;;;;;29.27;43.22;69224.72;5010504;28;20236;-69
2021/06/26 08:44:29;;;;;;;8.73;7.43;;;;;;;29.38;40.70;69237.41;5010607;28;20561;-69
2021/06/26 08:46:57;;;;;;;8.60;6.55;;;;;;;29.44;41.69;69244.78;5016149;28;20207;-68
2021/06/26 08:49:24;;;;;;;8.73;7.60;;;;;;;29.39;46.01;69239.63;5014418;28;20234;-70
2021/06/26 08:51:54;;;;;;;8.88;7.22;;;;;;;29.38;44.50;69238.31;5014497;28;20234;-68
2021/06/26 08:54:22;;;;;;;13.73;7.38;;;;;;;29.38;44.60;69238.50;5014393;28;20218;-68
2021/06/26 08:56:50;;;;;;;8.32;6.80;;;;;;;29.49;41.50;69250.88;5013527;28;20683;-69
2021/06/26 08:59:17;;;;;;;7.85;6.60;;;;;;;29.59;40.70;69261.84;5014859;28;20265;-68
2021/06/26 09:01:45;;;;;;;8.43;7.18;;;;;;;29.57;43.52;69260.56;5013707;28;20231;-68
2021/06/26 09:04:15;;;;;;;9.90;8.17;;;;;;;29.56;43.69;69259.25;5013767;28;20213;-70
2021/06/26 09:06:50;;;;;;;8.90;7.63;;;;;;;29.52;45.24;69254.78;5014015;28;20302;-69
2021/06/26 09:09:29;;;;;;;7.80;7.00;;;;;;;29.59;40.06;69262.25;5014413;28;20226;-69
2021/06/26 09:12:04;;;;;;;8.88;6.93;;;;;;;29.63;42.08;69266.28;5010548;28;20222;-68
2021/06/26 09:14:32;;;;;;;9.52;6.80;;;;;;;29.69;42.28;69274.06;5013367;28;20298;-68
2021/06/26 09:16:59;;;;;;;8.30;7.38;;;;;;;29.68;43.11;69271.88;5014633;28;20207;-68
2021/06/26 09:19:27;;;;;;;8.65;6.90;;;;;;;29.81;39.04;69286.50;5013549;28;20925;-68
2021/06/26 09:22:00;;;;;;;7.47;6.60;;;;;;;29.97;36.48;69305.34;5013848;28;20241;-68
2021/06/26 09:24:38;;;;;;;8.82;7.70;;;;;;;30.15;34.12;69325.31;5012509;28;20257;-68
2021/06/26 09:27:06;;;;;;;10.23;6.78;;;;;;;30.24;37.64;69335.56;5007855;28;20286;-68
2021/06/26 09:29:33;;;;;;;7.38;6.53;;;;;;;30.39;35.84;69353.38;5013553;28;20235;-68
2021/06/26 09:32:02;;;;;;;7.85;6.18;;;;;;;30.50;36.11;69365.59;5014440;28;20707;-68
2021/06/26 09:34:39;;;;;;;7.97;6.72;;;;;;;30.54;38.25;69371.00;5012678;28;20294;-68
2021/06/26 09:37:08;;;;;;;7.75;6.30;;;;;;;30.64;36.32;69381.78;5007705;28;20207;-68
2021/06/26 09:39:40;;;;;;;11.10;7.70;;;;;;;30.76;34.70;69395.19;5013187;28;20644;-68
2021/06/26 09:42:15;;;;;;;7.07;6.32;;;;;;;30.88;33.70;69409.59;5013896;28;20239;-68
2021/06/26 09:44:51;;;;;;;6.88;5.75;;;;;;;30.98;33.46;69420.84;5012938;28;20261;-68
2021/06/26 09:47:33;;;;;;;6.55;5.68;;;;;;;31.13;32.45;69438.06;5013082;28;20210;-68
2021/06/26 09:50:15;;;;;;;6.78;5.60;;;;;;;31.23;33.57;69449.44;5013374;28;20227;-68
2021/06/26 09:52:45;;;;;;;7.55;6.75;;;;;;;31.26;35.35;69452.50;5011459;28;20265;-68
2021/06/26 09:55:23;;;;;;;9.77;6.72;;;;;;;31.34;34.35;69462.13;5013130;28;20203;-67
2021/06/26 09:57:51;;;;;;;8.80;7.55;;;;;;;31.34;38.38;69461.38;5012373;28;20200;-67
2021/06/26 10:00:20;;;;;;;7.10;6.40;;;;;;;31.32;39.26;69459.47;5013572;28;20214;-68
2021/06/26 10:02:48;;;;;;;9.07;7.05;;;;;;;31.34;37.20;69460.91;5013316;28;20210;-68
2021/06/26 10:05:16;;;;;;;7.88;6.70;;;;;;;31.29;39.60;69455.72;5012269;28;20579;-68
2021/06/26 10:07:45;;;;;;;7.72;6.93;;;;;;;31.43;33.20;69471.13;5012703;28;20208;-68
2021/06/26 10:10:14;;;;;;;8.32;5.93;;;;;;;31.50;35.88;69479.31;5010792;28;20664;-68
2021/06/26 10:12:43;;;;;;;8.18;6.88;;;;;;;31.48;37.58;69476.53;5011607;28;20223;-68
2021/06/26 10:15:12;;;;;;;7.07;6.28;;;;;;;31.58;34.83;69488.03;5012298;28;20226;-68
2021/06/26 10:17:40;;;;;;;8.80;6.88;;;;;;;31.59;37.25;69489.75;5010728;28;20215;-68
2021/06/26 10:20:11;;;;;;;9.85;7.68;;;;;;;31.59;37.16;69488.84;5012374;28;20775;-68
2021/06/26 10:22:39;;;;;;;8.10;6.35;;;;;;;31.67;34.41;69497.78;5013006;28;20246;-68
2021/06/26 10:25:08;;;;;;;8.93;6.65;;;;;;;31.71;35.82;69501.88;5038934;22;20222;-67
2021/06/26 10:27:36;;;;;;;7.93;6.80;;;;;;;31.71;36.47;69501.88;5035236;28;20218;-67
2021/06/26 10:30:12;;;;;;;7.50;6.32;;;;;;;31.69;36.23;69499.69;5043361;28;20228;-67
2021/06/26 10:32:50;;;;;;;7.32;6.13;;;;;;;31.76;34.49;69507.72;5032535;28;20210;-67
2021/06/26 10:35:18;;;;;;;6.57;5.95;;;;;;;31.86;33.06;69518.59;5036682;28;20580;-67
2021/06/26 10:37:45;;;;;;;7.15;5.60;;;;;;;31.95;32.53;69529.09;5031912;28;20213;-67
2021/06/26 10:40:13;;;;;;;9.32;6.32;;;;;;;31.92;36.83;69524.44;5032481;28;20199;-67
2021/06/26 10:42:41;;;;;;;6.50;5.90;;;;;;;31.92;36.80;69524.94;5038538;28;20257;-67
2021/06/26 10:45:24;;;;;;;6.72;6.05;;;;;;;31.93;36.52;69526.25;5032990;28;20213;-67
2021/06/26 10:47:53;;;;;;;6.88;5.63;;;;;;;32.03;32.81;69538.31;5038615;28;20656;-67
2021/06/26 10:50:23;;;;;;;6.93;5.75;;;;;;;32.05;34.92;69540.13;5032003;28;20231;-66
2021/06/26 10:52:51;;;;;;;7.15;6.20;;;;;;;32.07;35.14;69541.97;5038935;28;20213;-67
2021/06/26 10:55:29;;;;;;;6.65;5.95;;;;;;;32.12;34.19;69547.56;5031399;28;20207;-67
2021/06/26 10:57:57;;;;;;;6.50;5.28;;;;;;;32.21;33.07;69557.94;5031393;28;20667;-67
2021/06/26 11:00:34;;;;;;;6.30;5.57;;;;;;;32.30;33.09;69567.78;5038068;28;20566;-67
2021/06/26 11:03:04;;;;;;;6.00;5.40;;;;;;;32.45;30.71;69585.47;5031204;28;20212;-67
2021/06/26 11:05:32;;;;;;;7.28;5.78;;;;;;;32.62;29.70;69603.88;5036001;28;20332;-67
2021/06/26 11:08:00;;;;;;;8.68;5.95;;;;;;;32.78;29.67;69622.50;5033307;28;20214;-67
2021/06/26 11:10:27;;;;;;;6.13;5.53;;;;;;;32.94;29.69;69640.91;5031273;28;20222;-67
2021/06/26 11:12:55;;;;;;;6.78;5.07;;;;;;;33.12;29.53;69660.25;5035551;28;20203;-67
2021/06/26 11:15:27;;;;;;;6.00;5.40;;;;;;;33.28;27.83;69678.56;5032982;28;20237;-67
2021/06/26 11:17:55;;;;;;;6.97;5.43;;;;;;;33.33;30.48;69684.78;5031811;28;20202;-68
2021/06/26 11:20:24;;;;;;;5.78;5.03;;;;;;;33.50;27.98;69704.19;5041226;28;20568;-68
2021/06/26 11:22:56;;;;;;;6.07;5.20;;;;;;;33.45;33.91;69697.38;5032377;28;20217;-68
2021/06/26 11:25:27;;;;;;;6.72;4.93;;;;;;;33.43;32.74;69694.56;5041230;28;20236;-67
2021/06/26 11:28:03;;;;;;;5.75;5.25;;;;;;;33.46;31.90;69698.13;5031663;28;20198;-67
2021/06/26 11:30:31;;;;;;;5.70;5.15;;;;;;;33.41;34.67;69692.22;5032483;28;20229;-67
2021/06/26 11:32:59;;;;;;;8.35;5.07;;;;;;;33.41;32.52;69692.22;5031780;28;20228;-67
2021/06/26 11:35:33;;;;;;;5.85;5.18;;;;;;;33.35;32.93;69685.59;5031820;28;21166;-67